Time;durP1;ratioP1;P1;durP2;ratioP2;P2;SDS_P1;SDS_P2;PMS_P1;PMS_P2;Temp;Humidity;BMP_temperature;BMP_pressure;BME280_temperature;BME280_humidity;BME280_pressure;Samples;Min_cycle;Max_cycle;Signal;HPM_P1;HPM_P2
2022/12/07 00:01:15;;;;;;;34.50;23.90;;;5.90;99.90;;;;;;5023328;28;20407;-77
2022/12/07 00:03:42;;;;;;;37.40;23.02;;;5.90;99.90;;;;;;5023069;28;20399;-77
2022/12/07 00:06:09;;;;;;;34.85;22.70;;;6.00;99.90;;;;;;5023285;28;20913;-80
2022/12/07 00:08:36;;;;;;;34.17;22.70;;;6.00;99.90;;;;;;5023369;28;20858;-77
2022/12/07 00:11:09;;;;;;;37.72;22.90;;;6.10;99.90;;;;;;5020249;28;20387;-77
2022/12/07 00:13:36;;;;;;;32.05;23.20;;;6.10;99.90;;;;;;5022274;28;20387;-76
2022/12/07 00:16:06;;;;;;;33.28;22.65;;;6.10;99.90;;;;;;5024671;28;20388;-77
2022/12/07 00:18:32;;;;;;;35.17;23.67;;;6.10;99.90;;;;;;5025103;28;20397;-78
2022/12/07 00:21:04;;;;;;;33.92;23.17;;;6.10;99.90;;;;;;5024649;28;20427;-77
2022/12/07 00:23:30;;;;;;;34.00;23.23;;;6.20;99.80;;;;;;5037272;28;20413;-75
2022/12/07 00:26:02;;;;;;;35.47;23.40;;;6.30;98.90;;;;;;5030748;28;20438;-78
2022/12/07 00:28:28;;;;;;;29.50;21.17;;;6.20;98.70;;;;;;5034674;28;20427;-76
2022/12/07 00:31:02;;;;;;;34.43;22.53;;;6.50;95.00;;;;;;5029459;28;20407;-75
2022/12/07 00:33:28;;;;;;;34.38;23.20;;;6.40;96.50;;;;;;5029885;28;20786;-76
2022/12/07 00:35:58;;;;;;;41.17;25.00;;;6.30;98.20;;;;;;5030205;28;20389;-77
2022/12/07 00:38:24;;;;;;;36.70;23.40;;;6.30;98.40;;;;;;5024323;28;20476;-77
2022/12/07 00:41:01;;;;;;;32.97;22.90;;;6.20;98.90;;;;;;5024234;28;20389;-76
2022/12/07 00:43:27;;;;;;;35.63;22.80;;;6.30;97.80;;;;;;5028804;28;20399;-77
2022/12/07 00:45:53;;;;;;;34.70;23.33;;;6.30;98.00;;;;;;5029367;28;20480;-77
2022/12/07 00:48:19;;;;;;;31.53;22.43;;;6.30;97.50;;;;;;5030959;28;20380;-77
2022/12/07 00:50:44;;;;;;;35.17;23.63;;;6.30;97.10;;;;;;5031919;28;20399;-77
2022/12/07 00:53:10;;;;;;;35.55;23.20;;;6.30;97.40;;;;;;5029487;28;20457;-77
2022/12/07 00:55:36;;;;;;;34.58;23.23;;;6.20;98.10;;;;;;5028848;28;20403;-77
2022/12/07 00:58:02;;;;;;;33.92;23.85;;;6.20;97.60;;;;;;5022053;28;20403;-76
2022/12/07 01:00:27;;;;;;;34.88;23.38;;;6.20;98.20;;;;;;5024999;28;20455;-78
2022/12/07 01:02:53;;;;;;;36.80;23.77;;;6.20;98.10;;;;;;5019032;28;20397;-79
2022/12/07 01:05:19;;;;;;;34.03;23.07;;;6.20;98.00;;;;;;5019833;28;20427;-77
2022/12/07 01:07:46;;;;;;;42.97;25.17;;;6.20;98.50;;;;;;5027066;28;20439;-79
2022/12/07 01:10:12;;;;;;;32.67;24.15;;;6.20;99.10;;;;;;5024834;28;20735;-80
2022/12/07 01:12:38;;;;;;;36.58;24.50;;;6.20;98.80;;;;;;5027987;28;20417;-76
2022/12/07 01:15:04;;;;;;;33.65;24.13;;;6.20;98.60;;;;;;5020478;28;20392;-77
2022/12/07 01:17:30;;;;;;;41.72;24.10;;;6.20;97.80;;;;;;5019277;28;20387;-78
2022/12/07 01:19:56;;;;;;;39.17;25.02;;;6.20;97.70;;;;;;5019747;28;20456;-78
2022/12/07 01:22:21;;;;;;;38.60;24.65;;;6.20;98.70;;;;;;5018248;28;20400;-78
2022/12/07 01:24:47;;;;;;;33.85;24.70;;;6.20;97.40;;;;;;5019600;28;20388;-77
2022/12/07 01:27:13;;;;;;;36.35;24.50;;;6.30;95.90;;;;;;5018658;28;20495;-77
2022/12/07 01:29:39;;;;;;;37.55;25.20;;;6.20;96.30;;;;;;5024835;28;20389;-77
2022/12/07 01:32:05;;;;;;;36.33;24.10;;;6.20;97.30;;;;;;5025207;28;20444;-77
2022/12/07 01:34:31;;;;;;;38.17;25.03;;;6.20;97.20;;;;;;5024636;28;20393;-77
2022/12/07 01:36:57;;;;;;;36.97;25.27;;;6.20;98.00;;;;;;5024409;28;20400;-76
2022/12/07 01:39:23;;;;;;;35.10;25.20;;;6.20;98.10;;;;;;5023600;28;20396;-77
2022/12/07 01:41:48;;;;;;;37.63;25.45;;;6.10;98.30;;;;;;5021214;28;20396;-79
2022/12/07 01:44:25;;;;;;;39.85;25.25;;;6.10;99.30;;;;;;5023067;28;20507;-79
2022/12/07 01:46:53;;;;;;;40.03;25.43;;;6.10;99.10;;;;;;5021965;28;20450;-77
2022/12/07 01:49:41;;;;;;;38.28;25.63;;;6.20;99.10;;;;;;5018479;28;20400;-78
2022/12/07 01:52:18;;;;;;;37.20;26.45;;;6.10;99.10;;;;;;5019394;28;20910;-77
2022/12/07 01:54:49;;;;;;;36.10;25.55;;;6.20;99.70;;;;;;5023630;28;20396;-78
2022/12/07 01:57:16;;;;;;;35.20;26.20;;;6.10;99.90;;;;;;5022105;28;20470;-79
2022/12/07 01:59:44;;;;;;;34.70;24.83;;;6.20;97.20;;;;;;5018626;28;20417;-77
2022/12/07 02:02:19;;;;;;;35.30;25.25;;;6.20;98.20;;;;;;5019282;28;20876;-77
2022/12/07 02:04:46;;;;;;;39.65;27.10;;;6.20;97.00;;;;;;5018475;28;20395;-77
2022/12/07 02:07:12;;;;;;;36.70;25.27;;;6.20;97.90;;;;;;5025937;28;20401;-78
2022/12/07 02:09:38;;;;;;;40.50;26.30;;;6.10;96.20;;;;;;5036102;28;20381;-77
2022/12/07 02:12:04;;;;;;;36.30;25.47;;;6.10;96.90;;;;;;5036724;28;20410;-78
2022/12/07 02:14:29;;;;;;;39.70;26.25;;;6.20;95.60;;;;;;5031439;28;20400;-76
2022/12/07 02:17:13;;;;;;;38.58;25.67;;;6.10;96.30;;;;;;5019992;28;20389;-78
2022/12/07 02:19:44;;;;;;;35.42;25.40;;;6.10;96.20;;;;;;5024506;28;20878;-78
2022/12/07 02:22:34;;;;;;;36.10;26.33;;;6.10;95.30;;;;;;5037942;28;20508;-76
2022/12/07 02:25:47;;;;;;;43.35;27.70;;;6.00;97.30;;;;;;5043436;28;20392;-78
2022/12/07 02:28:29;;;;;;;39.78;27.08;;;6.00;97.40;;;;;;5043010;28;20425;-76
2022/12/07 02:30:58;;;;;;;39.15;28.42;;;5.90;99.90;;;;;;5050447;28;20408;-75
2022/12/07 02:33:42;;;;;;;39.88;26.80;;;5.90;99.90;;;;;;5022795;28;20416;-75
2022/12/07 02:36:14;;;;;;;37.17;27.15;;;5.90;99.90;;;;;;5049965;28;20849;-77
2022/12/07 02:38:57;;;;;;;39.58;26.67;;;6.00;98.50;;;;;;5036653;28;20388;-74
2022/12/07 02:41:31;;;;;;;39.33;27.35;;;5.90;98.60;;;;;;5021686;28;20420;-78
2022/12/07 02:44:10;;;;;;;36.45;26.67;;;5.90;99.90;;;;;;5032200;28;20410;-77
2022/12/07 02:46:44;;;;;;;39.45;27.55;;;5.90;99.90;;;;;;5029771;28;20455;-76
2022/12/07 02:49:11;;;;;;;39.22;26.75;;;5.90;99.90;;;;;;5020344;28;20412;-77
2022/12/07 02:51:42;;;;;;;40.53;27.13;;;6.00;97.90;;;;;;5028175;28;20440;-77
2022/12/07 02:54:13;;;;;;;38.45;27.73;;;6.00;97.10;;;;;;5022431;28;20889;-77
2022/12/07 02:56:47;;;;;;;41.13;26.98;;;5.90;98.60;;;;;;5022746;28;20389;-78
2022/12/07 02:59:34;;;;;;;40.05;27.60;;;5.90;98.10;;;;;;5019235;28;20794;-76
2022/12/07 03:02:06;;;;;;;41.17;27.02;;;6.00;98.10;;;;;;5021727;28;20388;-78
2022/12/07 03:04:38;;;;;;;35.97;26.10;;;6.00;97.30;;;;;;5007532;23;20547;-72
2022/12/07 03:07:24;;;;;;;38.70;27.08;;;6.00;97.00;;;;;;4990467;28;20798;-72
2022/12/07 03:09:58;;;;;;;35.92;26.20;;;5.90;97.40;;;;;;4990164;28;20380;-72
2022/12/07 03:12:45;;;;;;;38.60;25.90;;;6.00;98.00;;;;;;4989558;28;20723;-72
2022/12/07 03:15:43;;;;;;;37.50;26.20;;;6.10;93.80;;;;;;4990315;28;20375;-70
2022/12/07 03:18:12;;;;;;;35.72;25.90;;;6.10;96.10;;;;;;4982690;28;20421;-70
2022/12/07 03:20:41;;;;;;;38.92;27.80;;;6.10;94.00;;;;;;4988944;28;20387;-71
2022/12/07 03:23:09;;;;;;;38.50;26.90;;;6.00;96.30;;;;;;4989661;28;20831;-71
2022/12/07 03:25:40;;;;;;;39.55;25.83;;;6.00;96.20;;;;;;4990214;28;20409;-70
2022/12/07 03:28:07;;;;;;;39.55;25.80;;;6.20;92.30;;;;;;4992254;28;20422;-71
2022/12/07 03:30:59;;;;;;;34.05;23.00;;;6.30;90.60;;;;;;4994990;28;20394;-71
2022/12/07 03:33:43;;;;;;;37.72;23.88;;;6.30;87.10;;;;;;4995512;28;20389;-72
2022/12/07 03:36:28;;;;;;;35.83;25.27;;;6.20;87.20;;;;;;4999321;28;20418;-71
2022/12/07 03:39:02;;;;;;;38.22;25.25;;;6.00;90.20;;;;;;4997574;28;20465;-71
2022/12/07 03:41:32;;;;;;;35.78;24.25;;;5.90;91.00;;;;;;4995875;28;20494;-71
2022/12/07 03:43:58;;;;;;;37.90;25.98;;;5.90;91.10;;;;;;4996381;28;20867;-72
2022/12/07 03:46:52;;;;;;;40.03;26.33;;;5.80;93.70;;;;;;4995879;28;20410;-72
2022/12/07 03:49:32;;;;;;;38.47;26.20;;;5.80;94.10;;;;;;4995509;28;20387;-72
2022/12/07 03:52:19;;;;;;;39.42;26.60;;;5.70;97.40;;;;;;5008329;28;20401;-70
2022/12/07 03:55:08;;;;;;;40.63;26.23;;;5.60;99.20;;;;;;4993695;28;20521;-72
2022/12/07 03:57:36;;;;;;;39.38;26.05;;;5.60;99.80;;;;;;4993713;28;20767;-71
2022/12/07 04:00:04;;;;;;;38.10;26.17;;;5.60;99.00;;;;;;4994468;28;20478;-71
2022/12/07 04:02:30;;;;;;;37.30;27.20;;;5.60;99.90;;;;;;4993366;28;20421;-72
2022/12/07 04:04:56;;;;;;;34.75;24.85;;;5.80;99.30;;;;;;4994266;28;20751;-71
2022/12/07 04:07:21;;;;;;;37.40;25.20;;;6.00;92.90;;;;;;4994467;28;20410;-72
2022/12/07 04:09:47;;;;;;;38.50;24.13;;;6.00;89.80;;;;;;4996594;28;20492;-72
2022/12/07 04:12:13;;;;;;;33.87;24.70;;;6.00;89.60;;;;;;4995651;28;20390;-71
2022/12/07 04:14:38;;;;;;;34.43;24.80;;;5.90;90.50;;;;;;4996281;28;20386;-71
2022/12/07 04:17:04;;;;;;;36.00;22.60;;;5.80;91.40;;;;;;4995420;28;20897;-71
2022/12/07 04:19:32;;;;;;;39.63;25.80;;;5.70;91.60;;;;;;4994296;28;20415;-72
2022/12/07 04:21:59;;;;;;;31.83;23.50;;;5.70;93.90;;;;;;4993019;28;20379;-71
2022/12/07 04:24:25;;;;;;;38.20;25.30;;;5.70;93.50;;;;;;4993524;28;20475;-71
2022/12/07 04:26:51;;;;;;;39.33;26.20;;;5.70;95.00;;;;;;4992915;28;20418;-71
2022/12/07 04:29:17;;;;;;;37.63;26.20;;;5.70;96.90;;;;;;4993220;28;20900;-71
2022/12/07 04:31:44;;;;;;;42.60;26.83;;;5.70;95.90;;;;;;4992316;28;20386;-71
2022/12/07 04:34:10;;;;;;;34.90;24.80;;;5.60;97.70;;;;;;4992872;28;20815;-72
2022/12/07 04:36:37;;;;;;;34.63;24.53;;;5.50;99.90;;;;;;4992985;28;20466;-71
2022/12/07 04:39:03;;;;;;;40.20;25.10;;;5.50;99.90;;;;;;4993173;28;20755;-72
2022/12/07 04:41:29;;;;;;;34.65;24.30;;;5.60;99.90;;;;;;4992365;28;20449;-71
2022/12/07 04:43:56;;;;;;;34.30;23.87;;;5.80;93.70;;;;;;4992799;28;21035;-71
2022/12/07 04:46:23;;;;;;;37.85;24.33;;;5.80;93.30;;;;;;4992943;28;20410;-72
2022/12/07 04:48:49;;;;;;;33.05;23.85;;;5.90;93.30;;;;;;4993420;28;20379;-69
2022/12/07 04:51:19;;;;;;;36.85;21.73;;;5.80;94.80;;;;;;4992009;28;20456;-71
2022/12/07 04:53:45;;;;;;;30.10;20.98;;;5.60;95.70;;;;;;4993353;28;20382;-70
2022/12/07 04:56:10;;;;;;;28.73;20.73;;;5.50;96.20;;;;;;4992762;28;20397;-71
2022/12/07 04:58:36;;;;;;;29.63;19.90;;;5.50;97.30;;;;;;4991324;28;20401;-71
2022/12/07 05:01:01;;;;;;;29.50;19.17;;;5.60;97.60;;;;;;4992204;28;20414;-71
2022/12/07 05:03:27;;;;;;;28.90;20.30;;;5.60;93.80;;;;;;4992147;28;20871;-71
2022/12/07 05:05:52;;;;;;;30.07;19.80;;;5.70;91.80;;;;;;4992635;28;20411;-71
2022/12/07 05:08:18;;;;;;;26.80;18.80;;;5.70;91.20;;;;;;4992300;28;20406;-70
2022/12/07 05:10:43;;;;;;;25.07;17.90;;;5.60;90.80;;;;;;4992208;28;20479;-72
2022/12/07 05:13:09;;;;;;;26.20;17.50;;;5.60;92.30;;;;;;4991785;28;20413;-72
2022/12/07 05:15:34;;;;;;;27.83;17.93;;;5.50;91.80;;;;;;4992502;28;20448;-71
2022/12/07 05:18:00;;;;;;;28.07;17.43;;;5.50;92.60;;;;;;4993082;28;20387;-71
2022/12/07 05:20:26;;;;;;;27.83;17.63;;;5.50;93.10;;;;;;4992700;28;20387;-71
2022/12/07 05:22:51;;;;;;;27.30;18.00;;;5.50;92.60;;;;;;4992003;28;20481;-70
2022/12/07 05:25:17;;;;;;;25.95;17.25;;;5.40;92.70;;;;;;4992447;28;20393;-70
2022/12/07 05:27:42;;;;;;;26.50;17.50;;;5.40;93.60;;;;;;4992417;28;20414;-70
2022/12/07 05:30:08;;;;;;;22.58;17.25;;;5.40;93.30;;;;;;4992419;28;20438;-71
2022/12/07 05:32:34;;;;;;;25.77;17.48;;;5.40;93.70;;;;;;4993391;28;20748;-71
2022/12/07 05:34:59;;;;;;;22.73;15.37;;;5.50;94.10;;;;;;4993016;28;20395;-71
2022/12/07 05:37:25;;;;;;;28.40;16.90;;;5.50;92.00;;;;;;4992531;28;20411;-71
2022/12/07 05:39:50;;;;;;;26.40;16.70;;;5.50;92.00;;;;;;4993711;28;20418;-71
2022/12/07 05:42:17;;;;;;;30.47;16.47;;;5.50;91.80;;;;;;4995328;28;20402;-71
2022/12/07 05:44:45;;;;;;;23.92;16.83;;;5.60;91.30;;;;;;4992233;28;20764;-72
2022/12/07 05:47:12;;;;;;;26.38;16.67;;;5.50;91.30;;;;;;4992377;28;20409;-72
2022/12/07 05:49:38;;;;;;;19.98;14.85;;;5.50;91.70;;;;;;4994045;28;20495;-72
2022/12/07 05:52:05;;;;;;;20.42;15.05;;;5.60;91.20;;;;;;4996561;28;20918;-73
2022/12/07 05:54:30;;;;;;;19.60;14.70;;;5.60;90.00;;;;;;4997912;28;20745;-71
2022/12/07 05:56:57;;;;;;;29.90;15.70;;;5.60;89.20;;;;;;4996618;28;20448;-72
2022/12/07 05:59:23;;;;;;;20.73;13.93;;;5.60;88.00;;;;;;4996251;28;20405;-72
2022/12/07 06:01:53;;;;;;;24.60;15.02;;;5.60;88.10;;;;;;4995067;28;20391;-72
2022/12/07 06:04:21;;;;;;;25.35;14.70;;;5.60;90.00;;;;;;4992978;28;20429;-72
2022/12/07 06:06:47;;;;;;;24.85;15.05;;;5.60;90.30;;;;;;4992248;28;20406;-72
2022/12/07 06:09:14;;;;;;;20.55;14.20;;;5.60;89.10;;;;;;4991511;28;20768;-72
2022/12/07 06:14:24;;;;;;;30.02;16.67;;;5.60;88.60;;;;;;4991472;28;20787;-70
2022/12/07 06:16:50;;;;;;;26.10;15.50;;;5.40;93.80;;;;;;4991445;28;20390;-71
2022/12/07 06:19:16;;;;;;;26.05;15.68;;;5.40;94.00;;;;;;4991543;28;20394;-71
2022/12/07 06:21:42;;;;;;;25.40;15.07;;;5.40;96.00;;;;;;4990664;28;20865;-72
2022/12/07 06:24:11;;;;;;;22.52;14.98;;;5.50;94.50;;;;;;4991077;28;20449;-72
2022/12/07 06:26:37;;;;;;;28.02;15.18;;;5.60;91.20;;;;;;5022061;28;20510;-72
2022/12/07 06:29:02;;;;;;;30.70;16.93;;;5.50;93.10;;;;;;4991041;28;20489;-73
2022/12/07 06:31:28;;;;;;;25.17;15.00;;;5.70;92.00;;;;;;4990439;28;20378;-71
2022/12/07 06:34:01;;;;;;;20.00;15.13;;;5.60;91.60;;;;;;4990678;28;20386;-72
2022/12/07 06:36:27;;;;;;;23.25;15.23;;;5.50;91.60;;;;;;4990915;28;20408;-71
2022/12/07 06:38:53;;;;;;;28.47;15.07;;;5.60;91.50;;;;;;4991008;28;20871;-71
2022/12/07 06:41:19;;;;;;;25.58;14.93;;;5.70;90.90;;;;;;4989671;28;20390;-72
2022/12/07 06:43:44;;;;;;;24.50;13.90;;;5.60;89.40;;;;;;4990741;28;20386;-72
2022/12/07 06:46:10;;;;;;;22.90;12.80;;;5.60;90.60;;;;;;4990774;28;20524;-72
2022/12/07 06:48:35;;;;;;;23.50;13.00;;;5.50;89.40;;;;;;4990871;28;20882;-71
2022/12/07 06:51:01;;;;;;;22.30;13.80;;;5.60;88.40;;;;;;4990528;28;20809;-72
2022/12/07 06:53:26;;;;;;;25.03;14.10;;;5.50;89.80;;;;;;4990590;28;20441;-73
2022/12/07 06:55:52;;;;;;;25.27;13.70;;;5.50;89.50;;;;;;4990697;28;20390;-72
2022/12/07 06:58:18;;;;;;;25.40;15.27;;;5.50;90.20;;;;;;4990570;28;20391;-72
2022/12/07 07:00:44;;;;;;;23.93;15.40;;;5.40;90.70;;;;;;4990882;28;21031;-72
2022/12/07 07:03:10;;;;;;;22.05;14.82;;;5.40;93.00;;;;;;5020962;28;20410;-72
2022/12/07 07:05:35;;;;;;;23.30;14.38;;;5.30;94.90;;;;;;4990272;28;20867;-71
2022/12/07 07:08:01;;;;;;;22.02;14.15;;;5.40;93.60;;;;;;4990575;28;20393;-73
2022/12/07 07:10:27;;;;;;;18.50;14.15;;;5.40;94.00;;;;;;4990431;28;20748;-72
2022/12/07 07:12:52;;;;;;;24.50;14.73;;;5.40;91.90;;;;;;4989840;28;20383;-71
2022/12/07 07:15:18;;;;;;;24.05;13.90;;;5.40;92.70;;;;;;4991691;28;20792;-72
2022/12/07 07:17:44;;;;;;;26.20;14.93;;;5.30;92.80;;;;;;4993052;28;20463;-72
2022/12/07 07:20:10;;;;;;;21.00;14.70;;;5.30;94.50;;;;;;4993655;28;20393;-71
2022/12/07 07:22:35;;;;;;;23.98;14.90;;;5.30;94.00;;;;;;4991872;28;20386;-72
2022/12/07 07:25:01;;;;;;;25.13;14.23;;;5.20;94.10;;;;;;4992679;28;20402;-72
2022/12/07 07:27:26;;;;;;;25.05;14.32;;;5.30;94.60;;;;;;4993396;28;20407;-71
2022/12/07 07:29:52;;;;;;;22.35;14.30;;;5.40;94.10;;;;;;5008106;28;20489;-72
2022/12/07 07:32:17;;;;;;;27.38;15.13;;;5.40;93.60;;;;;;4990980;28;20466;-73
2022/12/07 07:34:43;;;;;;;26.63;14.10;;;5.30;93.20;;;;;;4992450;28;20394;-72
2022/12/07 07:37:10;;;;;;;23.48;14.02;;;5.40;93.60;;;;;;4994581;28;20405;-73
2022/12/07 07:39:36;;;;;;;22.80;13.55;;;5.40;92.50;;;;;;4996316;28;20391;-73
2022/12/07 07:42:02;;;;;;;18.90;13.32;;;5.40;91.20;;;;;;4998491;28;20382;-72
2022/12/07 07:44:27;;;;;;;19.23;12.82;;;5.50;91.10;;;;;;5002293;28;20864;-72
2022/12/07 07:46:53;;;;;;;21.95;13.90;;;5.60;88.30;;;;;;4999702;28;20547;-72
2022/12/07 07:49:18;;;;;;;19.57;12.90;;;5.30;89.10;;;;;;5008388;28;20401;-72
2022/12/07 07:51:44;;;;;;;24.20;14.80;;;5.10;91.90;;;;;;5006240;28;20879;-72
2022/12/07 07:54:09;;;;;;;19.33;13.70;;;5.00;96.00;;;;;;4998929;28;20393;-72
2022/12/07 07:56:35;;;;;;;20.50;14.07;;;4.90;97.20;;;;;;5004145;28;20394;-72
2022/12/07 07:59:00;;;;;;;18.93;14.30;;;5.10;96.20;;;;;;4994568;28;20494;-73
2022/12/07 08:01:26;;;;;;;22.40;15.13;;;5.10;92.90;;;;;;4992020;28;20452;-73
2022/12/07 08:03:52;;;;;;;21.80;14.80;;;4.90;95.40;;;;;;4990807;28;20411;-73
2022/12/07 08:06:17;;;;;;;22.40;14.43;;;4.90;99.90;;;;;;4991129;28;20406;-73
2022/12/07 08:08:43;;;;;;;25.87;15.07;;;4.90;99.70;;;;;;4990754;28;20395;-73
2022/12/07 08:11:09;;;;;;;26.67;15.20;;;4.90;99.90;;;;;;4990222;28;20922;-73
2022/12/07 08:13:35;;;;;;;24.00;14.50;;;5.00;99.90;;;;;;4989712;28;20884;-73
2022/12/07 08:16:08;;;;;;;21.58;14.50;;;5.00;99.60;;;;;;4994530;28;20959;-74
2022/12/07 08:18:38;;;;;;;24.65;13.32;;;5.10;99.70;;;;;;4994345;28;20533;-73
2022/12/07 08:21:04;;;;;;;20.00;13.47;;;5.30;99.10;;;;;;4993373;28;20394;-72
2022/12/07 08:23:30;;;;;;;16.15;12.02;;;5.40;96.60;;;;;;4993871;28;20390;-73
2022/12/07 08:26:00;;;;;;;20.50;12.43;;;5.60;90.80;;;;;;4993617;28;20410;-72
2022/12/07 08:28:26;;;;;;;23.15;12.68;;;5.60;88.00;;;;;;4993580;28;20378;-73
2022/12/07 08:30:51;;;;;;;19.15;13.75;;;5.60;87.00;;;;;;5025244;28;20536;-71
2022/12/07 08:33:17;;;;;;;21.35;12.43;;;5.50;88.80;;;;;;4996842;28;20492;-72
2022/12/07 08:35:42;;;;;;;19.57;12.60;;;5.50;89.30;;;;;;4996646;28;20390;-71
2022/12/07 08:38:08;;;;;;;19.70;11.60;;;5.50;89.30;;;;;;4995459;28;20394;-73
2022/12/07 08:40:35;;;;;;;19.38;11.77;;;5.60;86.70;;;;;;4995657;28;20382;-73
2022/12/07 08:43:00;;;;;;;26.58;12.10;;;5.60;86.60;;;;;;4995288;28;20397;-73
2022/12/07 08:45:27;;;;;;;19.07;11.23;;;5.50;86.70;;;;;;4996451;28;20431;-72
2022/12/07 08:47:59;;;;;;;19.60;11.20;;;5.50;87.40;;;;;;4996694;28;20426;-74
2022/12/07 08:50:26;;;;;;;17.63;10.48;;;5.50;87.40;;;;;;4995189;28;20456;-73
2022/12/07 08:52:54;;;;;;;21.20;10.97;;;5.50;87.70;;;;;;4994684;28;20472;-73
2022/12/07 08:55:20;;;;;;;18.65;11.13;;;5.40;89.00;;;;;;4995527;28;20382;-73
2022/12/07 08:57:45;;;;;;;22.25;11.60;;;5.30;89.50;;;;;;4994374;28;20802;-73
2022/12/07 09:00:12;;;;;;;21.52;11.20;;;5.30;91.20;;;;;;4994699;28;20390;-73
2022/12/07 09:02:37;;;;;;;23.42;12.18;;;5.20;91.70;;;;;;4992636;28;20395;-73
2022/12/07 09:05:03;;;;;;;19.70;12.20;;;5.10;93.50;;;;;;5046298;23;20427;-77
2022/12/07 09:07:31;;;;;;;19.90;12.80;;;5.10;95.30;;;;;;5039790;28;20411;-78
2022/12/07 09:09:57;;;;;;;22.10;11.80;;;5.10;94.40;;;;;;5039358;28;20387;-77
2022/12/07 09:12:23;;;;;;;14.50;10.50;;;5.20;94.50;;;;;;5045031;28;20394;-77
2022/12/07 09:14:48;;;;;;;24.55;11.95;;;5.30;93.40;;;;;;5045363;28;20422;-77
2022/12/07 09:17:14;;;;;;;21.23;11.20;;;5.50;93.80;;;;;;5044473;28;20483;-76
2022/12/07 09:19:41;;;;;;;24.60;10.85;;;5.80;89.20;;;;;;5045035;28;20402;-78
2022/12/07 09:22:07;;;;;;;18.40;10.27;;;5.90;85.50;;;;;;5045961;28;20413;-76
2022/12/07 09:24:33;;;;;;;14.48;9.50;;;5.90;82.90;;;;;;5046115;28;20379;-77
2022/12/07 09:26:59;;;;;;;17.47;10.40;;;6.00;82.90;;;;;;5046779;28;20501;-76
2022/12/07 09:29:25;;;;;;;21.77;10.10;;;6.00;82.20;;;;;;5044129;28;20469;-77
2022/12/07 09:31:52;;;;;;;15.15;9.80;;;5.90;82.80;;;;;;5043592;28;20402;-76
2022/12/07 09:34:17;;;;;;;16.73;10.23;;;5.80;83.10;;;;;;5047508;28;20387;-77
2022/12/07 09:36:43;;;;;;;16.95;9.93;;;5.80;85.10;;;;;;5045631;28;20395;-76
2022/12/07 09:39:09;;;;;;;17.98;11.00;;;5.70;85.90;;;;;;5045090;28;20387;-76
2022/12/07 09:41:39;;;;;;;15.93;11.10;;;5.80;87.00;;;;;;5039983;28;20935;-75
2022/12/07 09:44:12;;;;;;;18.83;10.10;;;6.10;83.60;;;;;;5041896;28;20398;-78
2022/12/07 09:46:41;;;;;;;18.27;9.77;;;6.20;81.10;;;;;;5043379;28;20422;-76
2022/12/07 09:49:14;;;;;;;14.40;9.75;;;6.30;77.90;;;;;;5041048;28;20421;-76
2022/12/07 09:51:40;;;;;;;15.35;9.98;;;6.50;75.20;;;;;;5041958;28;20395;-76
2022/12/07 09:54:05;;;;;;;15.97;10.90;;;6.40;74.60;;;;;;5038016;28;20398;-77
2022/12/07 09:56:31;;;;;;;14.70;10.70;;;6.50;74.70;;;;;;5041390;28;20387;-79
2022/12/07 09:59:02;;;;;;;17.65;10.30;;;6.70;72.90;;;;;;5043441;28;20383;-77
2022/12/07 10:01:31;;;;;;;14.88;10.55;;;6.70;72.20;;;;;;5041478;28;20454;-77
2022/12/07 10:04:09;;;;;;;18.92;10.77;;;6.70;73.40;;;;;;5039141;28;20414;-79
2022/12/07 10:06:35;;;;;;;18.77;10.80;;;6.80;73.10;;;;;;5034715;28;21006;-76
2022/12/07 10:09:00;;;;;;;17.20;9.90;;;6.80;71.60;;;;;;5040166;28;20421;-76
2022/12/07 10:11:26;;;;;;;15.52;9.90;;;6.90;69.40;;;;;;5044747;28;20418;-79
2022/12/07 10:13:53;;;;;;;19.58;10.40;;;7.00;68.10;;;;;;5039498;28;20383;-77
2022/12/07 10:16:40;;;;;;;16.95;9.00;;;7.00;68.80;;;;;;5039577;28;20455;-77
2022/12/07 10:19:31;;;;;;;16.05;9.98;;;7.20;65.90;;;;;;5041442;28;20751;-77
2022/12/07 10:22:22;;;;;;;15.95;7.90;;;7.10;66.70;;;;;;5039598;28;20387;-78
2022/12/07 10:24:48;;;;;;;18.65;9.00;;;7.20;64.80;;;;;;5043611;28;20398;-77
2022/12/07 10:27:25;;;;;;;15.37;9.00;;;7.20;64.90;;;;;;5043949;28;20477;-77
2022/12/07 10:29:52;;;;;;;16.30;8.85;;;7.20;65.40;;;;;;5039382;28;20383;-79
2022/12/07 10:32:18;;;;;;;14.25;8.23;;;7.20;65.00;;;;;;5039641;28;20383;-78
2022/12/07 10:34:44;;;;;;;17.03;9.20;;;7.10;64.60;;;;;;5040790;28;20702;-78
2022/12/07 10:37:12;;;;;;;18.43;9.03;;;7.20;63.40;;;;;;5038383;28;20433;-77
2022/12/07 10:39:48;;;;;;;13.40;8.20;;;7.10;65.30;;;;;;5042807;28;20505;-78
2022/12/07 10:42:31;;;;;;;19.90;8.63;;;7.00;66.10;;;;;;5053059;28;20395;-77
2022/12/07 10:45:12;;;;;;;20.10;8.20;;;7.00;65.50;;;;;;5050512;28;20402;-78
2022/12/07 10:48:22;;;;;;;17.83;8.75;;;7.00;66.40;;;;;;5054305;28;20430;-77
2022/12/07 10:50:58;;;;;;;13.70;7.90;;;6.90;66.50;;;;;;5042300;28;20403;-77
2022/12/07 10:53:35;;;;;;;14.80;7.80;;;6.80;67.50;;;;;;5036483;28;20728;-77
2022/12/07 10:56:04;;;;;;;16.92;7.70;;;6.80;66.40;;;;;;5035584;28;20409;-77
2022/12/07 10:59:02;;;;;;;15.35;8.02;;;6.70;67.10;;;;;;5043930;28;20383;-77
2022/12/07 11:01:43;;;;;;;18.67;8.15;;;6.70;68.30;;;;;;5044461;28;20450;-77
2022/12/07 11:04:41;;;;;;;16.35;7.80;;;6.70;68.20;;;;;;5044248;28;20423;-77
2022/12/07 11:07:22;;;;;;;15.43;7.57;;;6.70;66.30;;;;;;5041984;28;20407;-79
2022/12/07 11:10:05;;;;;;;13.23;7.30;;;6.70;66.40;;;;;;5039629;28;20375;-78
2022/12/07 11:13:00;;;;;;;15.50;7.00;;;6.70;66.10;;;;;;5040848;28;20454;-78
2022/12/07 11:15:50;;;;;;;17.03;7.60;;;6.70;65.80;;;;;;5051856;28;20487;-76
2022/12/07 11:18:26;;;;;;;14.20;7.00;;;6.70;67.40;;;;;;5045479;28;20420;-78
2022/12/07 11:21:06;;;;;;;21.55;7.53;;;7.00;64.80;;;;;;5037580;28;20420;-77
2022/12/07 11:23:55;;;;;;;12.57;6.70;;;7.00;63.30;;;;;;5037505;28;20557;-78
2022/12/07 11:26:45;;;;;;;17.05;6.95;;;7.30;61.00;;;;;;5036671;28;20427;-78
2022/12/07 11:29:19;;;;;;;14.48;7.10;;;7.30;60.80;;;;;;5037227;28;20391;-77
2022/12/07 11:32:04;;;;;;;15.93;7.00;;;7.40;58.10;;;;;;5037184;28;20383;-78
2022/12/07 11:34:57;;;;;;;17.75;6.28;;;7.40;58.90;;;;;;5037095;28;20907;-78
2022/12/07 11:37:33;;;;;;;15.43;6.07;;;7.70;58.60;;;;;;5040565;28;20500;-78
2022/12/07 11:40:24;;;;;;;11.63;5.70;;;7.90;55.50;;;;;;5035870;28;20464;-77
2022/12/07 11:43:02;;;;;;;16.63;6.25;;;7.90;55.20;;;;;;5033268;28;20398;-77
2022/12/07 11:45:34;;;;;;;14.82;5.50;;;8.00;53.20;;;;;;5040062;28;20383;-77
2022/12/07 11:48:02;;;;;;;15.23;5.40;;;8.00;51.70;;;;;;5038899;28;20405;-76
2022/12/07 11:50:41;;;;;;;14.38;5.22;;;8.00;51.00;;;;;;5043385;28;20387;-79
2022/12/07 11:53:17;;;;;;;12.52;5.63;;;8.00;51.80;;;;;;5046561;28;20398;-78
2022/12/07 11:56:11;;;;;;;13.18;5.80;;;8.00;51.00;;;;;;5054584;28;20385;-76
2022/12/07 11:58:42;;;;;;;14.05;5.93;;;8.00;52.20;;;;;;5052111;28;20407;-77
2022/12/07 12:01:17;;;;;;;13.30;5.70;;;8.10;52.20;;;;;;5052643;28;20397;-77
2022/12/07 12:03:59;;;;;;;12.65;5.60;;;8.20;51.80;;;;;;5050443;28;20415;-76
2022/12/07 12:06:25;;;;;;;14.30;6.30;;;8.30;50.10;;;;;;5046452;28;20434;-79
2022/12/07 12:08:55;;;;;;;12.60;5.53;;;8.30;49.60;;;;;;5040182;28;20383;-76
2022/12/07 12:11:42;;;;;;;14.32;5.88;;;8.30;48.70;;;;;;5040221;28;20379;-78
2022/12/07 12:14:23;;;;;;;13.10;5.80;;;8.30;49.30;;;;;;5041032;28;20682;-77
2022/12/07 12:17:10;;;;;;;14.45;6.70;;;8.20;48.60;;;;;;5042207;28;20426;-77
2022/12/07 12:19:54;;;;;;;12.00;6.60;;;8.20;49.30;;;;;;5041346;28;20420;-78
2022/12/07 12:22:23;;;;;;;14.32;6.18;;;8.20;50.50;;;;;;5039009;28;20460;-77
2022/12/07 12:24:52;;;;;;;12.63;6.30;;;8.20;49.80;;;;;;5041865;28;20444;-76
2022/12/07 12:27:28;;;;;;;17.52;6.80;;;8.20;51.10;;;;;;5043150;28;20418;-77
2022/12/07 12:30:01;;;;;;;14.68;6.65;;;8.30;51.10;;;;;;5042243;28;20470;-77
2022/12/07 12:32:29;;;;;;;17.42;7.68;;;8.30;50.30;;;;;;5045026;28;20385;-76
2022/12/07 12:35:19;;;;;;;12.38;7.22;;;8.40;51.00;;;;;;5048661;28;20444;-77
2022/12/07 12:37:46;;;;;;;12.63;6.70;;;8.40;49.20;;;;;;5049549;28;20492;-77
2022/12/07 12:40:15;;;;;;;15.75;7.03;;;8.30;48.90;;;;;;5050266;28;20799;-76
2022/12/07 12:42:58;;;;;;;13.10;7.43;;;8.20;49.70;;;;;;5045623;28;20394;-77
2022/12/07 12:45:25;;;;;;;14.32;6.93;;;8.20;50.10;;;;;;5051213;28;20391;-76
2022/12/07 12:48:18;;;;;;;17.30;6.87;;;8.20;50.30;;;;;;5055944;28;20514;-77
2022/12/07 12:50:44;;;;;;;16.13;7.10;;;8.20;50.80;;;;;;5055377;28;20391;-81
2022/12/07 12:53:24;;;;;;;18.67;7.10;;;8.40;49.80;;;;;;5047440;28;20386;-80
2022/12/07 12:56:10;;;;;;;14.38;6.40;;;8.30;50.40;;;;;;5042992;28;20383;-80
2022/12/07 12:58:38;;;;;;;11.20;5.93;;;8.30;49.70;;;;;;5039904;28;20534;-78